sensor_id;sensor_type;location;lat;lon;timestamp;P1;durP1;ratioP1;P2;durP2;ratioP2
11955;SDS011;6038;52.276;10.530;2022-08-23T00:02:06;3.47;;;2.00;;
11955;SDS011;6038;52.276;10.530;2022-08-23T00:04:33;3.83;;;1.92;;
11955;SDS011;6038;52.276;10.530;2022-08-23T00:06:59;3.80;;;2.20;;
11955;SDS011;6038;52.276;10.530;2022-08-23T00:09:26;2.38;;;2.00;;
11955;SDS011;6038;52.276;10.530;2022-08-23T00:12:06;2.95;;;2.00;;
11955;SDS011;6038;52.276;10.530;2022-08-23T00:14:35;3.35;;;2.08;;
11955;SDS011;6038;52.276;10.530;2022-08-23T00:17:01;4.00;;;1.98;;
11955;SDS011;6038;52.276;10.530;2022-08-23T00:19:27;2.58;;;1.90;;
11955;SDS011;6038;52.276;10.530;2022-08-23T00:21:54;5.22;;;1.90;;
11955;SDS011;6038;52.276;10.530;2022-08-23T00:24:20;3.00;;;2.20;;
11955;SDS011;6038;52.276;10.530;2022-08-23T00:29:19;4.05;;;1.92;;
11955;SDS011;6038;52.276;10.530;2022-08-23T00:31:45;3.20;;;1.92;;
11955;SDS011;6038;52.276;10.530;2022-08-23T00:34:11;2.85;;;1.98;;
11955;SDS011;6038;52.276;10.530;2022-08-23T00:36:37;3.40;;;2.20;;
11955;SDS011;6038;52.276;10.530;2022-08-23T00:39:04;4.35;;;2.30;;
11955;SDS011;6038;52.276;10.530;2022-08-23T00:41:30;3.08;;;1.85;;
11955;SDS011;6038;52.276;10.530;2022-08-23T00:43:57;4.28;;;2.10;;
11955;SDS011;6038;52.276;10.530;2022-08-23T00:46:54;3.40;;;2.13;;
11955;SDS011;6038;52.276;10.530;2022-08-23T00:49:39;3.55;;;2.28;;
11955;SDS011;6038;52.276;10.530;2022-08-23T00:54:32;2.70;;;1.90;;
11955;SDS011;6038;52.276;10.530;2022-08-23T00:57:00;4.32;;;2.00;;
11955;SDS011;6038;52.276;10.530;2022-08-23T00:59:27;3.95;;;2.17;;
11955;SDS011;6038;52.276;10.530;2022-08-23T01:01:53;3.05;;;2.05;;
11955;SDS011;6038;52.276;10.530;2022-08-23T01:04:20;6.53;;;2.42;;
11955;SDS011;6038;52.276;10.530;2022-08-23T01:07:01;4.28;;;2.67;;
11955;SDS011;6038;52.276;10.530;2022-08-23T01:09:28;4.45;;;2.40;;
11955;SDS011;6038;52.276;10.530;2022-08-23T01:14:28;3.47;;;2.00;;
11955;SDS011;6038;52.276;10.530;2022-08-23T01:16:59;5.03;;;2.20;;
11955;SDS011;6038;52.276;10.530;2022-08-23T01:19:29;4.10;;;2.30;;
11955;SDS011;6038;52.276;10.530;2022-08-23T01:22:06;3.72;;;2.20;;
11955;SDS011;6038;52.276;10.530;2022-08-23T01:24:33;5.72;;;2.03;;
11955;SDS011;6038;52.276;10.530;2022-08-23T01:26:59;5.70;;;2.35;;
11955;SDS011;6038;52.276;10.530;2022-08-23T01:29:25;5.30;;;1.98;;
11955;SDS011;6038;52.276;10.530;2022-08-23T01:31:52;4.70;;;2.15;;
11955;SDS011;6038;52.276;10.530;2022-08-23T01:34:18;3.38;;;2.15;;
11955;SDS011;6038;52.276;10.530;2022-08-23T01:36:49;4.32;;;2.30;;
11955;SDS011;6038;52.276;10.530;2022-08-23T01:39:15;2.88;;;1.80;;
11955;SDS011;6038;52.276;10.530;2022-08-23T01:41:41;3.88;;;2.30;;
11955;SDS011;6038;52.276;10.530;2022-08-23T01:44:08;3.55;;;2.05;;
11955;SDS011;6038;52.276;10.530;2022-08-23T01:46:34;3.65;;;2.13;;
11955;SDS011;6038;52.276;10.530;2022-08-23T01:49:01;4.25;;;2.20;;
11955;SDS011;6038;52.276;10.530;2022-08-23T01:51:27;4.35;;;2.50;;
11955;SDS011;6038;52.276;10.530;2022-08-23T01:53:53;3.88;;;2.22;;
11955;SDS011;6038;52.276;10.530;2022-08-23T01:56:19;3.55;;;2.03;;
11955;SDS011;6038;52.276;10.530;2022-08-23T01:58:46;3.70;;;2.42;;
11955;SDS011;6038;52.276;10.530;2022-08-23T02:01:12;6.30;;;2.20;;
11955;SDS011;6038;52.276;10.530;2022-08-23T02:03:39;5.00;;;2.53;;
11955;SDS011;6038;52.276;10.530;2022-08-23T02:06:05;8.32;;;2.20;;
11955;SDS011;6038;52.276;10.530;2022-08-23T02:08:31;3.38;;;2.20;;
11955;SDS011;6038;52.276;10.530;2022-08-23T02:11:17;5.70;;;2.67;;
11955;SDS011;6038;52.276;10.530;2022-08-23T02:13:45;4.20;;;2.50;;
11955;SDS011;6038;52.276;10.530;2022-08-23T02:16:12;4.97;;;2.22;;
11955;SDS011;6038;52.276;10.530;2022-08-23T02:18:38;3.45;;;2.20;;
11955;SDS011;6038;52.276;10.530;2022-08-23T02:21:04;4.22;;;2.50;;
11955;SDS011;6038;52.276;10.530;2022-08-23T02:23:30;4.15;;;2.47;;
11955;SDS011;6038;52.276;10.530;2022-08-23T02:25:56;7.53;;;2.30;;
11955;SDS011;6038;52.276;10.530;2022-08-23T02:28:22;4.43;;;2.47;;
11955;SDS011;6038;52.276;10.530;2022-08-23T02:30:50;5.57;;;2.40;;
11955;SDS011;6038;52.276;10.530;2022-08-23T02:33:17;3.03;;;2.40;;
11955;SDS011;6038;52.276;10.530;2022-08-23T02:35:44;5.22;;;2.70;;
11955;SDS011;6038;52.276;10.530;2022-08-23T02:38:10;4.70;;;2.50;;
11955;SDS011;6038;52.276;10.530;2022-08-23T02:40:37;3.78;;;2.63;;
11955;SDS011;6038;52.276;10.530;2022-08-23T02:43:03;6.15;;;3.03;;
11955;SDS011;6038;52.276;10.530;2022-08-23T02:45:30;4.55;;;2.60;;
11955;SDS011;6038;52.276;10.530;2022-08-23T02:47:57;6.05;;;2.40;;
11955;SDS011;6038;52.276;10.530;2022-08-23T02:50:24;5.78;;;2.45;;
11955;SDS011;6038;52.276;10.530;2022-08-23T02:52:50;5.18;;;2.78;;
11955;SDS011;6038;52.276;10.530;2022-08-23T02:55:16;6.60;;;2.60;;
11955;SDS011;6038;52.276;10.530;2022-08-23T02:57:42;3.85;;;2.63;;
11955;SDS011;6038;52.276;10.530;2022-08-23T03:00:09;6.30;;;3.38;;
11955;SDS011;6038;52.276;10.530;2022-08-23T03:02:36;3.75;;;2.42;;
11955;SDS011;6038;52.276;10.530;2022-08-23T03:05:05;5.05;;;2.72;;
11955;SDS011;6038;52.276;10.530;2022-08-23T03:07:31;7.63;;;2.22;;
11955;SDS011;6038;52.276;10.530;2022-08-23T03:09:57;8.70;;;2.95;;
11955;SDS011;6038;52.276;10.530;2022-08-23T03:12:23;6.65;;;2.80;;
11955;SDS011;6038;52.276;10.530;2022-08-23T03:14:51;3.92;;;2.47;;
11955;SDS011;6038;52.276;10.530;2022-08-23T03:17:17;6.65;;;2.90;;
11955;SDS011;6038;52.276;10.530;2022-08-23T03:19:43;6.25;;;3.63;;
11955;SDS011;6038;52.276;10.530;2022-08-23T03:22:09;4.45;;;2.85;;
11955;SDS011;6038;52.276;10.530;2022-08-23T03:24:35;4.50;;;2.97;;
11955;SDS011;6038;52.276;10.530;2022-08-23T03:27:01;6.00;;;3.30;;
11955;SDS011;6038;52.276;10.530;2022-08-23T03:29:27;6.28;;;3.50;;
11955;SDS011;6038;52.276;10.530;2022-08-23T03:31:53;5.80;;;3.40;;
11955;SDS011;6038;52.276;10.530;2022-08-23T03:34:20;6.83;;;3.03;;
11955;SDS011;6038;52.276;10.530;2022-08-23T03:36:46;3.92;;;2.95;;
11955;SDS011;6038;52.276;10.530;2022-08-23T03:39:12;4.82;;;3.00;;
11955;SDS011;6038;52.276;10.530;2022-08-23T03:41:38;6.85;;;2.90;;
11955;SDS011;6038;52.276;10.530;2022-08-23T03:44:04;8.50;;;3.63;;
11955;SDS011;6038;52.276;10.530;2022-08-23T03:46:30;6.97;;;3.50;;
11955;SDS011;6038;52.276;10.530;2022-08-23T03:48:57;5.20;;;3.10;;
11955;SDS011;6038;52.276;10.530;2022-08-23T03:51:24;6.82;;;3.70;;
11955;SDS011;6038;52.276;10.530;2022-08-23T03:53:50;4.68;;;3.05;;
11955;SDS011;6038;52.276;10.530;2022-08-23T03:56:21;7.13;;;3.20;;
11955;SDS011;6038;52.276;10.530;2022-08-23T03:58:47;5.47;;;3.37;;
11955;SDS011;6038;52.276;10.530;2022-08-23T04:01:14;8.53;;;3.67;;
11955;SDS011;6038;52.276;10.530;2022-08-23T04:03:40;5.70;;;3.57;;
11955;SDS011;6038;52.276;10.530;2022-08-23T04:06:07;6.07;;;3.70;;
11955;SDS011;6038;52.276;10.530;2022-08-23T04:08:33;8.77;;;3.90;;
11955;SDS011;6038;52.276;10.530;2022-08-23T04:10:59;4.83;;;3.40;;
11955;SDS011;6038;52.276;10.530;2022-08-23T04:13:25;5.07;;;3.30;;
11955;SDS011;6038;52.276;10.530;2022-08-23T04:15:53;6.23;;;3.90;;
11955;SDS011;6038;52.276;10.530;2022-08-23T04:18:19;5.93;;;3.77;;
11955;SDS011;6038;52.276;10.530;2022-08-23T04:20:46;4.07;;;3.40;;
11955;SDS011;6038;52.276;10.530;2022-08-23T04:23:12;4.53;;;3.33;;
11955;SDS011;6038;52.276;10.530;2022-08-23T04:25:38;6.07;;;3.70;;
11955;SDS011;6038;52.276;10.530;2022-08-23T04:28:07;7.43;;;3.47;;
11955;SDS011;6038;52.276;10.530;2022-08-23T04:30:33;6.17;;;3.53;;
11955;SDS011;6038;52.276;10.530;2022-08-23T04:32:59;8.33;;;4.13;;
11955;SDS011;6038;52.276;10.530;2022-08-23T04:35:25;7.50;;;4.13;;
11955;SDS011;6038;52.276;10.530;2022-08-23T04:37:52;6.57;;;3.97;;
11955;SDS011;6038;52.276;10.530;2022-08-23T04:40:18;5.27;;;3.90;;
11955;SDS011;6038;52.276;10.530;2022-08-23T04:43:02;7.30;;;4.03;;
11955;SDS011;6038;52.276;10.530;2022-08-23T04:45:28;7.33;;;3.50;;
11955;SDS011;6038;52.276;10.530;2022-08-23T04:47:56;7.30;;;4.10;;
11955;SDS011;6038;52.276;10.530;2022-08-23T04:50:22;6.53;;;4.07;;
11955;SDS011;6038;52.276;10.530;2022-08-23T04:52:48;5.83;;;3.57;;
11955;SDS011;6038;52.276;10.530;2022-08-23T04:55:15;7.33;;;3.53;;
11955;SDS011;6038;52.276;10.530;2022-08-23T04:57:41;6.77;;;4.73;;
11955;SDS011;6038;52.276;10.530;2022-08-23T05:00:08;6.03;;;3.60;;
11955;SDS011;6038;52.276;10.530;2022-08-23T05:02:38;10.53;;;4.37;;
11955;SDS011;6038;52.276;10.530;2022-08-23T05:05:05;11.03;;;4.10;;
11955;SDS011;6038;52.276;10.530;2022-08-23T05:07:31;5.23;;;4.00;;
11955;SDS011;6038;52.276;10.530;2022-08-23T05:09:57;6.07;;;3.97;;
11955;SDS011;6038;52.276;10.530;2022-08-23T05:12:23;9.70;;;4.07;;
11955;SDS011;6038;52.276;10.530;2022-08-23T05:14:49;5.88;;;4.07;;
11955;SDS011;6038;52.276;10.530;2022-08-23T05:17:16;6.70;;;3.93;;
11955;SDS011;6038;52.276;10.530;2022-08-23T05:19:42;6.30;;;4.17;;
11955;SDS011;6038;52.276;10.530;2022-08-23T05:22:08;4.77;;;4.27;;
11955;SDS011;6038;52.276;10.530;2022-08-23T05:24:34;9.43;;;4.67;;
11955;SDS011;6038;52.276;10.530;2022-08-23T05:27:00;9.15;;;3.95;;
11955;SDS011;6038;52.276;10.530;2022-08-23T05:29:26;7.43;;;3.90;;
11955;SDS011;6038;52.276;10.530;2022-08-23T05:31:52;7.40;;;4.30;;
11955;SDS011;6038;52.276;10.530;2022-08-23T05:34:18;6.17;;;3.90;;
11955;SDS011;6038;52.276;10.530;2022-08-23T05:36:44;5.38;;;3.92;;
11955;SDS011;6038;52.276;10.530;2022-08-23T05:39:10;7.07;;;3.70;;
11955;SDS011;6038;52.276;10.530;2022-08-23T05:41:36;5.77;;;4.23;;
11955;SDS011;6038;52.276;10.530;2022-08-23T05:44:04;5.50;;;3.73;;
11955;SDS011;6038;52.276;10.530;2022-08-23T05:46:30;5.07;;;3.13;;
11955;SDS011;6038;52.276;10.530;2022-08-23T05:48:57;5.10;;;3.60;;
11955;SDS011;6038;52.276;10.530;2022-08-23T05:51:30;4.60;;;3.13;;
11955;SDS011;6038;52.276;10.530;2022-08-23T05:53:57;8.03;;;4.00;;
11955;SDS011;6038;52.276;10.530;2022-08-23T05:58:51;6.28;;;3.50;;
11955;SDS011;6038;52.276;10.530;2022-08-23T06:01:17;4.82;;;3.30;;
11955;SDS011;6038;52.276;10.530;2022-08-23T06:03:44;6.37;;;3.60;;
11955;SDS011;6038;52.276;10.530;2022-08-23T06:06:10;7.23;;;3.73;;
11955;SDS011;6038;52.276;10.530;2022-08-23T06:08:37;6.40;;;3.65;;
11955;SDS011;6038;52.276;10.530;2022-08-23T06:11:26;7.20;;;3.70;;
11955;SDS011;6038;52.276;10.530;2022-08-23T06:13:54;4.57;;;3.15;;
11955;SDS011;6038;52.276;10.530;2022-08-23T06:16:22;4.95;;;3.50;;
11955;SDS011;6038;52.276;10.530;2022-08-23T06:18:49;7.77;;;3.70;;
11955;SDS011;6038;52.276;10.530;2022-08-23T06:21:16;6.22;;;3.47;;
11955;SDS011;6038;52.276;10.530;2022-08-23T06:23:43;5.32;;;3.10;;
11955;SDS011;6038;52.276;10.530;2022-08-23T06:26:22;6.72;;;2.90;;
11955;SDS011;6038;52.276;10.530;2022-08-23T06:28:50;5.15;;;2.97;;
11955;SDS011;6038;52.276;10.530;2022-08-23T06:31:17;9.52;;;3.78;;
11955;SDS011;6038;52.276;10.530;2022-08-23T06:34:02;5.43;;;3.35;;
11955;SDS011;6038;52.276;10.530;2022-08-23T06:36:28;5.05;;;3.50;;
11955;SDS011;6038;52.276;10.530;2022-08-23T06:38:55;7.47;;;3.80;;
11955;SDS011;6038;52.276;10.530;2022-08-23T06:41:21;4.05;;;2.90;;
11955;SDS011;6038;52.276;10.530;2022-08-23T06:43:47;5.88;;;2.70;;
11955;SDS011;6038;52.276;10.530;2022-08-23T06:46:14;5.63;;;3.20;;
11955;SDS011;6038;52.276;10.530;2022-08-23T06:48:41;3.83;;;2.70;;
11955;SDS011;6038;52.276;10.530;2022-08-23T06:51:11;7.28;;;3.08;;
11955;SDS011;6038;52.276;10.530;2022-08-23T06:53:38;7.07;;;2.63;;
11955;SDS011;6038;52.276;10.530;2022-08-23T06:56:04;5.30;;;2.90;;
11955;SDS011;6038;52.276;10.530;2022-08-23T06:58:30;4.53;;;2.97;;
11955;SDS011;6038;52.276;10.530;2022-08-23T07:01:19;5.60;;;2.97;;
11955;SDS011;6038;52.276;10.530;2022-08-23T07:03:43;4.13;;;2.70;;
11955;SDS011;6038;52.276;10.530;2022-08-23T07:06:09;5.72;;;2.70;;
11955;SDS011;6038;52.276;10.530;2022-08-23T07:08:35;6.03;;;2.85;;
11955;SDS011;6038;52.276;10.530;2022-08-23T07:11:02;5.97;;;2.70;;
11955;SDS011;6038;52.276;10.530;2022-08-23T07:13:28;10.40;;;2.63;;
11955;SDS011;6038;52.276;10.530;2022-08-23T07:15:58;3.00;;;2.40;;
11955;SDS011;6038;52.276;10.530;2022-08-23T07:18:24;3.22;;;2.83;;
11955;SDS011;6038;52.276;10.530;2022-08-23T07:20:56;4.20;;;2.67;;
11955;SDS011;6038;52.276;10.530;2022-08-23T07:23:24;7.93;;;2.55;;
11955;SDS011;6038;52.276;10.530;2022-08-23T07:25:50;2.70;;;1.80;;
11955;SDS011;6038;52.276;10.530;2022-08-23T07:28:16;4.45;;;2.40;;
11955;SDS011;6038;52.276;10.530;2022-08-23T07:30:42;3.38;;;2.03;;
11955;SDS011;6038;52.276;10.530;2022-08-23T07:33:08;5.28;;;2.35;;
11955;SDS011;6038;52.276;10.530;2022-08-23T07:35:35;4.05;;;2.10;;
11955;SDS011;6038;52.276;10.530;2022-08-23T07:38:01;3.30;;;2.03;;
11955;SDS011;6038;52.276;10.530;2022-08-23T07:40:27;3.90;;;2.17;;
11955;SDS011;6038;52.276;10.530;2022-08-23T07:42:56;5.18;;;2.03;;
11955;SDS011;6038;52.276;10.530;2022-08-23T07:45:22;3.22;;;2.10;;
11955;SDS011;6038;52.276;10.530;2022-08-23T07:47:48;3.35;;;1.92;;
11955;SDS011;6038;52.276;10.530;2022-08-23T07:50:14;3.90;;;1.77;;
11955;SDS011;6038;52.276;10.530;2022-08-23T07:52:40;1.67;;;1.55;;
11955;SDS011;6038;52.276;10.530;2022-08-23T07:55:07;3.22;;;1.77;;
11955;SDS011;6038;52.276;10.530;2022-08-23T07:57:33;3.00;;;1.67;;
11955;SDS011;6038;52.276;10.530;2022-08-23T07:59:59;5.30;;;1.70;;
11955;SDS011;6038;52.276;10.530;2022-08-23T08:02:25;3.03;;;1.40;;
11955;SDS011;6038;52.276;10.530;2022-08-23T08:04:51;2.15;;;1.60;;
11955;SDS011;6038;52.276;10.530;2022-08-23T08:07:17;1.98;;;1.50;;
11955;SDS011;6038;52.276;10.530;2022-08-23T08:09:44;1.75;;;1.40;;
11955;SDS011;6038;52.276;10.530;2022-08-23T08:12:11;2.25;;;1.30;;
11955;SDS011;6038;52.276;10.530;2022-08-23T08:14:37;2.13;;;1.40;;
11955;SDS011;6038;52.276;10.530;2022-08-23T08:17:03;2.75;;;1.40;;
11955;SDS011;6038;52.276;10.530;2022-08-23T08:19:30;2.35;;;1.33;;
11955;SDS011;6038;52.276;10.530;2022-08-23T08:21:56;1.88;;;1.20;;
11955;SDS011;6038;52.276;10.530;2022-08-23T08:24:22;4.18;;;1.40;;
11955;SDS011;6038;52.276;10.530;2022-08-23T08:26:49;3.13;;;1.70;;
11955;SDS011;6038;52.276;10.530;2022-08-23T08:29:15;4.28;;;1.30;;
11955;SDS011;6038;52.276;10.530;2022-08-23T08:31:41;3.25;;;1.50;;
11955;SDS011;6038;52.276;10.530;2022-08-23T08:34:08;2.80;;;1.40;;
11955;SDS011;6038;52.276;10.530;2022-08-23T08:36:38;2.85;;;1.52;;
11955;SDS011;6038;52.276;10.530;2022-08-23T08:39:06;3.70;;;1.40;;
11955;SDS011;6038;52.276;10.530;2022-08-23T08:41:46;1.65;;;1.10;;
11955;SDS011;6038;52.276;10.530;2022-08-23T08:44:59;2.28;;;1.30;;
11955;SDS011;6038;52.276;10.530;2022-08-23T08:46:58;1.58;;;1.10;;
11955;SDS011;6038;52.276;10.530;2022-08-23T08:49:32;1.50;;;1.20;;
11955;SDS011;6038;52.276;10.530;2022-08-23T08:52:02;1.48;;;1.20;;
11955;SDS011;6038;52.276;10.530;2022-08-23T08:54:30;3.35;;;1.30;;
11955;SDS011;6038;52.276;10.530;2022-08-23T08:56:57;2.10;;;1.35;;
11955;SDS011;6038;52.276;10.530;2022-08-23T08:59:41;2.20;;;1.20;;
11955;SDS011;6038;52.276;10.530;2022-08-23T09:02:11;2.80;;;1.20;;
11955;SDS011;6038;52.276;10.530;2022-08-23T09:04:39;2.45;;;1.50;;
11955;SDS011;6038;52.276;10.530;2022-08-23T09:07:19;2.08;;;1.40;;
11955;SDS011;6038;52.276;10.530;2022-08-23T09:10:09;2.60;;;1.40;;
11955;SDS011;6038;52.276;10.530;2022-08-23T09:15:34;4.03;;;1.65;;
11955;SDS011;6038;52.276;10.530;2022-08-23T09:18:10;3.15;;;1.60;;
11955;SDS011;6038;52.276;10.530;2022-08-23T09:20:36;2.95;;;1.15;;
11955;SDS011;6038;52.276;10.530;2022-08-23T09:25:29;6.93;;;1.50;;
11955;SDS011;6038;52.276;10.530;2022-08-23T09:27:55;3.03;;;1.45;;
11955;SDS011;6038;52.276;10.530;2022-08-23T09:30:21;3.60;;;1.48;;
11955;SDS011;6038;52.276;10.530;2022-08-23T09:33:21;4.30;;;1.42;;
11955;SDS011;6038;52.276;10.530;2022-08-23T09:36:12;2.17;;;1.40;;
11955;SDS011;6038;52.276;10.530;2022-08-23T09:38:48;3.67;;;1.60;;
11955;SDS011;6038;52.276;10.530;2022-08-23T09:41:16;2.65;;;1.50;;
11955;SDS011;6038;52.276;10.530;2022-08-23T09:43:44;3.35;;;1.40;;
11955;SDS011;6038;52.276;10.530;2022-08-23T09:46:23;2.22;;;1.40;;
11955;SDS011;6038;52.276;10.530;2022-08-23T09:48:49;2.08;;;1.27;;
11955;SDS011;6038;52.276;10.530;2022-08-23T09:51:31;4.63;;;1.42;;
11955;SDS011;6038;52.276;10.530;2022-08-23T09:56:35;2.08;;;1.33;;
11955;SDS011;6038;52.276;10.530;2022-08-23T09:59:02;6.13;;;1.48;;
11955;SDS011;6038;52.276;10.530;2022-08-23T10:01:44;3.78;;;1.40;;
11955;SDS011;6038;52.276;10.530;2022-08-23T10:06:38;4.47;;;1.48;;
11955;SDS011;6038;52.276;10.530;2022-08-23T10:09:06;3.05;;;1.38;;
11955;SDS011;6038;52.276;10.530;2022-08-23T10:11:37;3.00;;;1.40;;
11955;SDS011;6038;52.276;10.530;2022-08-23T10:14:04;3.08;;;1.13;;
11955;SDS011;6038;52.276;10.530;2022-08-23T10:21:37;3.20;;;1.30;;
11955;SDS011;6038;52.276;10.530;2022-08-23T10:24:12;2.78;;;1.40;;
11955;SDS011;6038;52.276;10.530;2022-08-23T10:27:25;3.88;;;1.30;;
11955;SDS011;6038;52.276;10.530;2022-08-23T10:29:35;2.72;;;1.30;;
11955;SDS011;6038;52.276;10.530;2022-08-23T10:34:41;2.40;;;1.20;;
11955;SDS011;6038;52.276;10.530;2022-08-23T10:39:33;3.30;;;1.70;;
11955;SDS011;6038;52.276;10.530;2022-08-23T10:42:24;2.17;;;1.00;;
11955;SDS011;6038;52.276;10.530;2022-08-23T10:45:26;3.58;;;1.42;;
11955;SDS011;6038;52.276;10.530;2022-08-23T10:48:19;2.72;;;1.40;;
11955;SDS011;6038;52.276;10.530;2022-08-23T10:51:22;4.15;;;1.30;;
11955;SDS011;6038;52.276;10.530;2022-08-23T10:53:27;1.85;;;1.25;;
11955;SDS011;6038;52.276;10.530;2022-08-23T10:55:56;3.45;;;1.38;;
11955;SDS011;6038;52.276;10.530;2022-08-23T11:00:58;2.22;;;1.27;;
11955;SDS011;6038;52.276;10.530;2022-08-23T11:08:35;3.40;;;1.30;;
11955;SDS011;6038;52.276;10.530;2022-08-23T11:11:30;2.10;;;1.83;;
11955;SDS011;6038;52.276;10.530;2022-08-23T11:13:53;2.90;;;1.20;;
11955;SDS011;6038;52.276;10.530;2022-08-23T11:16:22;2.03;;;1.48;;
11955;SDS011;6038;52.276;10.530;2022-08-23T11:18:50;2.03;;;1.30;;
11955;SDS011;6038;52.276;10.530;2022-08-23T11:23:49;2.53;;;1.60;;
11955;SDS011;6038;52.276;10.530;2022-08-23T11:28:48;1.90;;;1.42;;
11955;SDS011;6038;52.276;10.530;2022-08-23T11:32:18;2.08;;;1.20;;
11955;SDS011;6038;52.276;10.530;2022-08-23T11:34:18;3.05;;;1.27;;
11955;SDS011;6038;52.276;10.530;2022-08-23T11:39:31;5.43;;;2.63;;
11955;SDS011;6038;52.276;10.530;2022-08-23T11:42:17;2.60;;;2.40;;
11955;SDS011;6038;52.276;10.530;2022-08-23T11:44:47;2.80;;;1.92;;
11955;SDS011;6038;52.276;10.530;2022-08-23T11:47:13;2.38;;;1.50;;
11955;SDS011;6038;52.276;10.530;2022-08-23T11:49:43;3.03;;;1.52;;
11955;SDS011;6038;52.276;10.530;2022-08-23T11:57:56;2.95;;;1.55;;
11955;SDS011;6038;52.276;10.530;2022-08-23T12:00:27;2.10;;;1.35;;
11955;SDS011;6038;52.276;10.530;2022-08-23T12:03:03;1.90;;;1.20;;
11955;SDS011;6038;52.276;10.530;2022-08-23T12:18:32;2.70;;;1.40;;
11955;SDS011;6038;52.276;10.530;2022-08-23T12:21:03;3.92;;;1.20;;
11955;SDS011;6038;52.276;10.530;2022-08-23T12:23:29;3.08;;;1.40;;
11955;SDS011;6038;52.276;10.530;2022-08-23T12:25:58;1.70;;;1.58;;
11955;SDS011;6038;52.276;10.530;2022-08-23T12:28:29;3.38;;;1.50;;
11955;SDS011;6038;52.276;10.530;2022-08-23T12:31:02;1.52;;;1.42;;
11955;SDS011;6038;52.276;10.530;2022-08-23T12:33:40;2.58;;;1.35;;
11955;SDS011;6038;52.276;10.530;2022-08-23T12:36:19;4.97;;;1.80;;
11955;SDS011;6038;52.276;10.530;2022-08-23T12:41:21;2.42;;;1.40;;
11955;SDS011;6038;52.276;10.530;2022-08-23T12:43:55;3.10;;;1.40;;
11955;SDS011;6038;52.276;10.530;2022-08-23T12:46:29;2.63;;;1.40;;
11955;SDS011;6038;52.276;10.530;2022-08-23T12:48:55;3.45;;;1.42;;
11955;SDS011;6038;52.276;10.530;2022-08-23T12:51:21;1.42;;;1.30;;
11955;SDS011;6038;52.276;10.530;2022-08-23T12:53:47;3.70;;;1.55;;
11955;SDS011;6038;52.276;10.530;2022-08-23T12:56:15;2.63;;;1.07;;
11955;SDS011;6038;52.276;10.530;2022-08-23T12:58:44;3.13;;;1.20;;
11955;SDS011;6038;52.276;10.530;2022-08-23T13:01:19;2.78;;;1.50;;
11955;SDS011;6038;52.276;10.530;2022-08-23T13:03:45;4.03;;;1.17;;
11955;SDS011;6038;52.276;10.530;2022-08-23T13:06:15;5.22;;;1.40;;
11955;SDS011;6038;52.276;10.530;2022-08-23T13:08:44;3.35;;;1.52;;
11955;SDS011;6038;52.276;10.530;2022-08-23T13:11:12;1.67;;;1.50;;
11955;SDS011;6038;52.276;10.530;2022-08-23T13:13:40;2.97;;;1.40;;
11955;SDS011;6038;52.276;10.530;2022-08-23T13:18:49;1.80;;;1.50;;
11955;SDS011;6038;52.276;10.530;2022-08-23T13:23:47;3.67;;;1.25;;
11955;SDS011;6038;52.276;10.530;2022-08-23T13:36:57;3.30;;;1.52;;
11955;SDS011;6038;52.276;10.530;2022-08-23T13:39:23;2.33;;;1.50;;
11955;SDS011;6038;52.276;10.530;2022-08-23T13:41:49;3.80;;;1.60;;
11955;SDS011;6038;52.276;10.530;2022-08-23T13:44:17;4.10;;;1.45;;
11955;SDS011;6038;52.276;10.530;2022-08-23T13:46:43;1.92;;;1.50;;
11955;SDS011;6038;52.276;10.530;2022-08-23T13:49:12;3.20;;;1.60;;
11955;SDS011;6038;52.276;10.530;2022-08-23T13:51:40;3.45;;;1.67;;
11955;SDS011;6038;52.276;10.530;2022-08-23T13:54:11;3.28;;;1.50;;
11955;SDS011;6038;52.276;10.530;2022-08-23T13:56:39;3.20;;;1.70;;
11955;SDS011;6038;52.276;10.530;2022-08-23T14:01:45;2.88;;;1.77;;
11955;SDS011;6038;52.276;10.530;2022-08-23T14:04:11;2.00;;;1.52;;
11955;SDS011;6038;52.276;10.530;2022-08-23T14:06:37;2.67;;;1.60;;
11955;SDS011;6038;52.276;10.530;2022-08-23T14:09:03;2.47;;;1.73;;
11955;SDS011;6038;52.276;10.530;2022-08-23T14:11:30;3.08;;;1.50;;
11955;SDS011;6038;52.276;10.530;2022-08-23T14:13:56;3.33;;;1.52;;
11955;SDS011;6038;52.276;10.530;2022-08-23T14:16:24;2.88;;;1.42;;
11955;SDS011;6038;52.276;10.530;2022-08-23T14:18:51;4.05;;;1.70;;
11955;SDS011;6038;52.276;10.530;2022-08-23T14:21:17;3.47;;;1.70;;
11955;SDS011;6038;52.276;10.530;2022-08-23T14:23:43;5.60;;;1.58;;
11955;SDS011;6038;52.276;10.530;2022-08-23T14:26:09;4.13;;;1.80;;
11955;SDS011;6038;52.276;10.530;2022-08-23T14:28:37;4.18;;;1.75;;
11955;SDS011;6038;52.276;10.530;2022-08-23T14:31:03;2.72;;;1.75;;
11955;SDS011;6038;52.276;10.530;2022-08-23T14:33:29;5.57;;;1.75;;
11955;SDS011;6038;52.276;10.530;2022-08-23T14:35:55;2.60;;;1.70;;
11955;SDS011;6038;52.276;10.530;2022-08-23T14:38:22;3.05;;;1.60;;
11955;SDS011;6038;52.276;10.530;2022-08-23T14:40:55;3.97;;;1.92;;
11955;SDS011;6038;52.276;10.530;2022-08-23T14:43:22;4.10;;;1.75;;
11955;SDS011;6038;52.276;10.530;2022-08-23T14:45:48;2.67;;;1.80;;
11955;SDS011;6038;52.276;10.530;2022-08-23T14:48:15;2.42;;;1.60;;
11955;SDS011;6038;52.276;10.530;2022-08-23T14:50:42;2.38;;;1.65;;
11955;SDS011;6038;52.276;10.530;2022-08-23T14:53:08;2.95;;;1.77;;
11955;SDS011;6038;52.276;10.530;2022-08-23T14:55:34;2.38;;;1.50;;
11955;SDS011;6038;52.276;10.530;2022-08-23T14:58:01;2.35;;;1.42;;
11955;SDS011;6038;52.276;10.530;2022-08-23T15:00:28;2.67;;;1.80;;
11955;SDS011;6038;52.276;10.530;2022-08-23T15:02:54;3.25;;;1.50;;
11955;SDS011;6038;52.276;10.530;2022-08-23T15:05:20;3.70;;;1.80;;
11955;SDS011;6038;52.276;10.530;2022-08-23T15:07:46;2.45;;;1.63;;
11955;SDS011;6038;52.276;10.530;2022-08-23T15:10:12;2.95;;;1.73;;
11955;SDS011;6038;52.276;10.530;2022-08-23T15:12:38;2.70;;;1.60;;
11955;SDS011;6038;52.276;10.530;2022-08-23T15:15:07;2.28;;;1.58;;
11955;SDS011;6038;52.276;10.530;2022-08-23T15:17:37;4.78;;;1.90;;
11955;SDS011;6038;52.276;10.530;2022-08-23T15:20:04;2.85;;;1.58;;
11955;SDS011;6038;52.276;10.530;2022-08-23T15:22:30;1.58;;;1.48;;
11955;SDS011;6038;52.276;10.530;2022-08-23T15:24:56;3.50;;;1.60;;
11955;SDS011;6038;52.276;10.530;2022-08-23T15:27:22;3.38;;;1.50;;
11955;SDS011;6038;52.276;10.530;2022-08-23T15:29:49;3.25;;;1.48;;
11955;SDS011;6038;52.276;10.530;2022-08-23T15:32:15;3.00;;;1.70;;
11955;SDS011;6038;52.276;10.530;2022-08-23T15:34:41;2.63;;;1.63;;
11955;SDS011;6038;52.276;10.530;2022-08-23T15:37:07;2.35;;;1.67;;
11955;SDS011;6038;52.276;10.530;2022-08-23T15:39:35;3.30;;;1.55;;
11955;SDS011;6038;52.276;10.530;2022-08-23T15:42:01;3.58;;;1.80;;
11955;SDS011;6038;52.276;10.530;2022-08-23T15:44:27;2.67;;;1.58;;
11955;SDS011;6038;52.276;10.530;2022-08-23T15:46:53;3.70;;;1.70;;
11955;SDS011;6038;52.276;10.530;2022-08-23T15:49:19;2.78;;;1.42;;
11955;SDS011;6038;52.276;10.530;2022-08-23T15:51:46;3.05;;;1.40;;
11955;SDS011;6038;52.276;10.530;2022-08-23T15:54:12;1.77;;;1.48;;
11955;SDS011;6038;52.276;10.530;2022-08-23T15:56:40;2.43;;;1.60;;
11955;SDS011;6038;52.276;10.530;2022-08-23T15:59:07;3.55;;;1.40;;
11955;SDS011;6038;52.276;10.530;2022-08-23T16:01:35;2.50;;;1.30;;
11955;SDS011;6038;52.276;10.530;2022-08-23T16:04:01;1.63;;;1.33;;
11955;SDS011;6038;52.276;10.530;2022-08-23T16:06:27;5.40;;;1.67;;
11955;SDS011;6038;52.276;10.530;2022-08-23T16:08:53;2.70;;;1.50;;
11955;SDS011;6038;52.276;10.530;2022-08-23T16:11:20;3.00;;;1.40;;
11955;SDS011;6038;52.276;10.530;2022-08-23T16:13:46;2.55;;;1.50;;
11955;SDS011;6038;52.276;10.530;2022-08-23T16:16:19;2.75;;;1.48;;
11955;SDS011;6038;52.276;10.530;2022-08-23T16:18:47;5.60;;;1.60;;
11955;SDS011;6038;52.276;10.530;2022-08-23T16:21:14;2.78;;;1.65;;
11955;SDS011;6038;52.276;10.530;2022-08-23T16:23:41;3.72;;;1.48;;